createdAt,value
2022-12-25T00:02:08.468Z,100907.47
2022-12-25T00:05:11.130Z,100910.13
2022-12-25T00:08:14.240Z,100917.16
2022-12-25T00:11:20.059Z,100923.25
2022-12-25T00:14:23.054Z,100925.03
2022-12-25T00:17:25.752Z,100940.13
2022-12-25T00:20:28.885Z,100939.03
2022-12-25T00:23:32.051Z,100948.06
2022-12-25T00:26:35.272Z,100955.25
2022-12-25T00:29:38.170Z,100944.66
2022-12-25T00:32:42.585Z,100942.88
2022-12-25T00:35:45.198Z,100948.44
2022-12-25T00:38:48.387Z,100953.75
2022-12-25T00:42:09.471Z,100951.13
2022-12-25T00:45:15.906Z,100961.63
2022-12-25T00:48:18.722Z,100966.91
2022-12-25T00:51:21.801Z,100986.25
2022-12-25T00:54:24.377Z,100991.56
2022-12-25T00:57:27.909Z,101002.09
2022-12-25T01:00:30.689Z,101018.00
2022-12-25T01:03:33.632Z,101025.84
2022-12-25T01:06:36.401Z,101014.53
2022-12-25T01:09:58.927Z,101002.22
2022-12-25T01:13:01.481Z,101004.84
2022-12-25T01:16:10.426Z,100999.56
2022-12-25T01:19:13.513Z,101010.97
2022-12-25T01:22:16.808Z,101001.31
2022-12-25T01:25:19.510Z,100999.47
2022-12-25T01:28:22.628Z,100999.44
2022-12-25T01:31:25.641Z,101000.44
2022-12-25T01:34:28.625Z,101007.47
2022-12-25T01:37:31.165Z,101003.91
2022-12-25T01:40:37.231Z,101013.69
2022-12-25T01:43:58.817Z,101016.41
2022-12-25T01:47:02.344Z,101018.88
2022-12-25T01:50:05.446Z,101022.44
2022-12-25T01:53:08.481Z,101025.06
2022-12-25T01:56:11.231Z,101018.09
2022-12-25T01:59:19.013Z,101003.09
2022-12-25T02:02:22.185Z,101005.78
2022-12-25T02:05:28.995Z,101009.28
2022-12-25T02:08:32.424Z,100998.75
2022-12-25T02:11:54.441Z,101000.53
2022-12-25T02:15:04.993Z,101003.94
2022-12-25T02:18:34.338Z,101005.78
2022-12-25T02:22:22.849Z,101013.78
2022-12-25T02:25:37.520Z,101007.72
2022-12-25T02:28:56.485Z,101006.72
2022-12-25T02:32:08.671Z,101002.41
2022-12-25T02:35:31.559Z,101000.63
2022-12-25T02:38:39.768Z,101012.16
2022-12-25T02:41:45.388Z,101009.50
2022-12-25T02:45:08.983Z,101004.81
2022-12-25T02:48:31.066Z,101018.09
2022-12-25T02:51:56.156Z,101001.31
2022-12-25T02:55:23.388Z,100994.31
2022-12-25T02:58:46.115Z,101002.06
2022-12-25T03:02:07.270Z,100992.69
2022-12-25T03:05:31.530Z,100993.28
2022-12-25T03:08:40.538Z,100987.16
2022-12-25T03:11:46.908Z,100989.91
2022-12-25T03:15:08.515Z,100995.28
2022-12-25T03:18:15.400Z,100997.16
2022-12-25T03:21:36.394Z,100993.91
2022-12-25T03:24:59.236Z,101003.53
2022-12-25T03:28:02.143Z,101003.34
2022-12-25T03:31:13.963Z,101000.81
2022-12-25T03:34:45.581Z,101001.63
2022-12-25T03:38:13.056Z,101013.19
2022-12-25T03:41:37.127Z,101005.84
2022-12-25T03:44:54.871Z,101003.69
2022-12-25T03:48:16.453Z,101013.44
2022-12-25T03:51:42.343Z,101018.88
2022-12-25T03:55:05.787Z,101033.97
2022-12-25T03:58:40.213Z,101020.31
2022-12-25T04:02:01.279Z,101025.78
2022-12-25T04:05:23.426Z,101032.53
2022-12-25T04:08:44.451Z,101035.44
2022-12-25T04:12:05.856Z,101027.50
2022-12-25T04:15:27.751Z,101032.94
2022-12-25T04:18:49.265Z,101034.75
2022-12-25T04:22:10.047Z,101032.13
2022-12-25T04:25:31.430Z,101033.94
2022-12-25T04:28:52.675Z,101022.47
2022-12-25T04:32:13.982Z,101037.63
2022-12-25T04:35:35.702Z,101029.66
2022-12-25T04:38:40.426Z,101031.06
2022-12-25T04:41:43.050Z,101044.31
2022-12-25T04:44:46.104Z,101046.97
2022-12-25T04:47:48.767Z,101038.38
2022-12-25T04:50:51.963Z,101029.38
2022-12-25T04:53:55.118Z,101039.63
2022-12-25T04:56:58.077Z,101040.50
2022-12-25T05:00:01.032Z,101049.50
2022-12-25T05:03:04.654Z,101041.00
2022-12-25T05:06:07.879Z,101044.63
2022-12-25T05:09:11.243Z,101049.97
2022-12-25T05:12:13.922Z,101046.59
2022-12-25T05:15:17.538Z,101047.50
2022-12-25T05:18:20.151Z,101046.63
2022-12-25T05:21:23.483Z,101044.06
2022-12-25T05:24:28.147Z,101056.25
2022-12-25T05:27:31.468Z,101056.28
2022-12-25T05:30:35.121Z,101056.38
2022-12-25T05:33:38.227Z,101070.28
2022-12-25T05:36:41.012Z,101071.97
2022-12-25T05:39:43.939Z,101069.34
2022-12-25T05:42:46.530Z,101072.03
2022-12-25T05:45:50.612Z,101071.41
2022-12-25T05:48:53.176Z,101067.81
2022-12-25T05:51:56.602Z,101068.09
2022-12-25T05:54:59.899Z,101073.47
2022-12-25T05:58:03.301Z,101073.56
2022-12-25T06:01:12.402Z,101091.28
2022-12-25T06:04:15.673Z,101087.66
2022-12-25T06:07:18.523Z,101106.38
2022-12-25T06:10:22.364Z,101115.16
2022-12-25T06:13:25.127Z,101119.41
2022-12-25T06:16:34.026Z,101119.44
2022-12-25T06:19:40.089Z,101126.69
2022-12-25T06:22:43.019Z,101126.88
2022-12-25T06:25:45.771Z,101138.22
2022-12-25T06:28:48.897Z,101142.59
2022-12-25T06:31:55.240Z,101138.91
2022-12-25T06:34:58.964Z,101143.44
2022-12-25T06:38:01.636Z,101163.59
2022-12-25T06:41:09.489Z,101167.16
2022-12-25T06:44:12.156Z,101163.75
2022-12-25T06:47:15.480Z,101165.72
2022-12-25T06:50:17.952Z,101173.63
2022-12-25T06:53:20.897Z,101175.44
2022-12-25T06:56:26.308Z,101190.22
2022-12-25T06:59:29.277Z,101201.66
2022-12-25T07:02:33.457Z,101210.53
2022-12-25T07:05:38.344Z,101199.72
2022-12-25T07:08:40.947Z,101210.19
2022-12-25T07:11:46.373Z,101217.44
2022-12-25T07:14:50.389Z,101226.22
2022-12-25T07:17:53.443Z,101223.75
2022-12-25T07:20:56.159Z,101227.22
2022-12-25T07:23:59.220Z,101230.00
2022-12-25T07:27:01.826Z,101245.13
2022-12-25T07:30:05.668Z,101243.38
2022-12-25T07:33:08.217Z,101231.09
2022-12-25T07:36:12.902Z,101250.53
2022-12-25T07:39:16.671Z,101243.47
2022-12-25T07:42:25.019Z,101250.34
2022-12-25T07:45:30.226Z,101258.19
2022-12-25T07:48:33.498Z,101275.72
2022-12-25T07:51:36.143Z,101273.13
2022-12-25T07:54:39.199Z,101278.47
2022-12-25T07:57:41.822Z,101283.66
2022-12-25T08:00:44.816Z,101280.97
2022-12-25T08:03:59.330Z,101296.56
2022-12-25T08:07:02.816Z,101297.47
2022-12-25T08:10:05.767Z,101304.34
2022-12-25T08:13:14.232Z,101294.78
2022-12-25T08:16:17.350Z,101302.84
2022-12-25T08:19:20.841Z,101303.81
2022-12-25T08:22:23.923Z,101307.13
2022-12-25T08:25:26.908Z,101311.28
2022-12-25T08:28:30.053Z,101323.91
2022-12-25T08:31:37.238Z,101327.41
2022-12-25T08:34:42.261Z,101316.75
2022-12-25T08:37:45.238Z,101326.78
2022-12-25T08:40:48.381Z,101337.94
2022-12-25T08:43:51.839Z,101342.53
2022-12-25T08:46:54.503Z,101346.81
2022-12-25T08:49:58.173Z,101354.78
2022-12-25T08:53:01.038Z,101353.06
2022-12-25T08:56:05.159Z,101360.16
2022-12-25T08:59:07.793Z,101359.22
2022-12-25T09:02:12.634Z,101351.34
2022-12-25T09:05:15.477Z,101349.25
2022-12-25T09:08:20.104Z,101354.88
2022-12-25T09:11:22.826Z,101353.84
2022-12-25T09:14:26.246Z,101365.69
2022-12-25T09:17:28.861Z,101359.59
2022-12-25T09:20:31.953Z,101362.59
2022-12-25T09:23:35.018Z,101368.00
2022-12-25T09:26:38.540Z,101374.06
2022-12-25T09:29:41.580Z,101373.63
2022-12-25T09:32:44.885Z,101360.06
2022-12-25T09:36:17.096Z,101360.19
2022-12-25T09:39:20.329Z,101361.94
2022-12-25T09:42:25.739Z,101351.78
2022-12-25T09:45:36.985Z,101346.00
2022-12-25T09:48:41.223Z,101343.38
2022-12-25T09:51:44.958Z,101350.78
2022-12-25T09:55:08.785Z,101358.03
2022-12-25T09:58:13.592Z,101362.50
2022-12-25T10:01:45.593Z,101350.28
2022-12-25T10:04:48.842Z,101351.25
2022-12-25T10:08:09.845Z,101343.66
2022-12-25T10:11:39.695Z,101333.91
2022-12-25T10:15:20.569Z,101341.94
2022-12-25T10:18:52.908Z,101344.66
2022-12-25T10:21:59.540Z,101346.22
2022-12-25T10:25:04.913Z,101357.75
2022-12-25T10:28:16.174Z,101354.47
2022-12-25T10:31:24.766Z,101360.75
2022-12-25T10:34:29.780Z,101354.88
2022-12-25T10:37:33.385Z,101350.38
2022-12-25T10:40:47.402Z,101352.16
2022-12-25T10:43:54.070Z,101350.66
2022-12-25T10:47:01.878Z,101370.16
2022-12-25T10:50:25.454Z,101362.63
2022-12-25T10:53:29.691Z,101354.91
2022-12-25T10:56:33.331Z,101364.44
2022-12-25T10:59:45.945Z,101368.06
2022-12-25T11:02:49.655Z,101365.66
2022-12-25T11:05:52.751Z,101361.44
2022-12-25T11:09:00.981Z,101357.09
2022-12-25T11:12:03.966Z,101356.19
2022-12-25T11:15:37.898Z,101359.88
2022-12-25T11:19:00.481Z,101351.00
2022-12-25T11:22:05.711Z,101358.22
2022-12-25T11:25:14.029Z,101353.75
2022-12-25T11:28:17.277Z,101351.31
2022-12-25T11:31:22.533Z,101337.94
2022-12-25T11:34:39.134Z,101340.66
2022-12-25T11:37:54.452Z,101329.81
2022-12-25T11:41:01.742Z,101332.84
2022-12-25T11:44:07.536Z,101335.59
2022-12-25T11:47:35.559Z,101336.28
2022-12-25T11:50:45.725Z,101338.22
2022-12-25T11:53:53.320Z,101354.94
2022-12-25T11:56:58.416Z,101357.75
2022-12-25T12:00:10.527Z,101352.41
2022-12-25T12:03:16.290Z,101352.25
2022-12-25T12:06:46.518Z,101357.56
2022-12-25T12:09:56.679Z,101359.88
2022-12-25T12:13:24.779Z,101362.63
2022-12-25T12:16:27.560Z,101365.31
2022-12-25T12:19:32.003Z,101365.41
2022-12-25T12:22:34.749Z,101367.25
2022-12-25T12:25:42.298Z,101374.28
2022-12-25T12:28:46.666Z,101378.69
2022-12-25T12:31:51.445Z,101377.84
2022-12-25T12:34:58.496Z,101379.56
2022-12-25T12:38:08.389Z,101374.31
2022-12-25T12:41:14.805Z,101363.31
2022-12-25T12:44:18.879Z,101352.69
2022-12-25T12:47:44.418Z,101362.66
2022-12-25T12:50:47.871Z,101366.13
2022-12-25T12:57:40.503Z,101356.47
2022-12-25T13:00:58.809Z,101336.72
2022-12-25T13:04:30.286Z,101365.00
2022-12-25T13:08:15.600Z,101361.47
2022-12-25T13:11:29.741Z,101360.78
2022-12-25T13:14:35.274Z,101348.41
2022-12-25T13:18:25.731Z,101352.97
2022-12-25T13:22:04.453Z,101366.75
2022-12-25T13:25:19.647Z,101377.41
2022-12-25T13:32:50.908Z,101386.28
2022-12-25T13:36:04.645Z,101383.66
2022-12-25T13:39:16.483Z,101382.66
2022-12-25T13:42:22.989Z,101383.38
2022-12-25T13:45:28.520Z,101378.06
2022-12-25T13:48:32.331Z,101386.84
2022-12-25T13:51:35.082Z,101376.22
2022-12-25T13:54:38.367Z,101389.59
2022-12-25T13:57:45.158Z,101386.00
2022-12-25T14:00:53.253Z,101400.19
2022-12-25T14:03:56.264Z,101394.88
2022-12-25T14:07:09.567Z,101394.38
2022-12-25T14:10:13.227Z,101411.44
2022-12-25T14:13:16.915Z,101417.66
2022-12-25T14:16:21.345Z,101410.63
2022-12-25T14:19:32.663Z,101415.03
2022-12-25T14:22:38.754Z,101409.72
2022-12-25T14:25:44.801Z,101409.72
2022-12-25T14:29:17.233Z,101409.56
2022-12-25T14:32:23.667Z,101404.25
2022-12-25T14:35:26.427Z,101405.09
2022-12-25T14:38:39.809Z,101407.63
2022-12-25T14:41:42.417Z,101406.59
2022-12-25T14:45:01.779Z,101414.66
2022-12-25T14:48:25.237Z,101418.88
2022-12-25T14:51:29.849Z,101423.28
2022-12-25T14:54:32.563Z,101421.44
2022-12-25T14:57:39.888Z,101428.19
2022-12-25T15:00:42.831Z,101421.03
2022-12-25T15:03:45.994Z,101423.72
2022-12-25T15:07:07.561Z,101426.56
2022-12-25T15:10:57.631Z,101427.44
2022-12-25T15:13:36.600Z,101430.06
2022-12-25T15:16:46.465Z,101428.28
2022-12-25T15:19:49.140Z,101424.00
2022-12-25T15:23:18.564Z,101422.81
2022-12-25T15:26:16.673Z,101421.91
2022-12-25T15:29:38.135Z,101420.03
2022-12-25T15:32:42.769Z,101422.47
2022-12-25T15:35:45.962Z,101414.25
2022-12-25T15:38:49.274Z,101414.44
2022-12-25T15:42:11.156Z,101419.38
2022-12-25T15:45:25.875Z,101432.09
2022-12-25T15:48:29.371Z,101431.34
2022-12-25T15:51:32.245Z,101428.75
2022-12-25T15:54:35.797Z,101434.25
2022-12-25T15:57:40.933Z,101440.72
2022-12-25T16:00:44.127Z,101437.38
2022-12-25T16:03:47.509Z,101437.44
2022-12-25T16:06:51.569Z,101438.44
2022-12-25T16:09:54.412Z,101433.00
2022-12-25T16:12:57.550Z,101428.69
2022-12-25T16:16:00.521Z,101422.22
2022-12-25T16:19:04.564Z,101423.16
2022-12-25T16:22:27.364Z,101427.69
2022-12-25T16:25:30.940Z,101427.59
2022-12-25T16:28:33.497Z,101434.28
2022-12-25T16:31:37.776Z,101444.28
2022-12-25T16:34:41.159Z,101445.41
2022-12-25T16:37:44.250Z,101454.09
2022-12-25T16:40:56.177Z,101451.69
2022-12-25T16:43:59.327Z,101441.81
2022-12-25T16:47:02.068Z,101442.88
2022-12-25T16:50:06.427Z,101446.53
2022-12-25T16:53:09.744Z,101445.72
2022-12-25T16:56:15.273Z,101433.47
2022-12-25T16:59:18.266Z,101438.59
2022-12-25T17:02:22.101Z,101442.91
2022-12-25T17:05:25.200Z,101434.84
2022-12-25T17:08:28.519Z,101436.63
2022-12-25T17:11:31.601Z,101429.56
2022-12-25T17:14:35.479Z,101424.94
2022-12-25T17:17:38.080Z,101429.19
2022-12-25T17:20:50.060Z,101429.06
2022-12-25T17:23:58.082Z,101434.28
2022-12-25T17:27:08.926Z,101421.66
2022-12-25T17:30:11.857Z,101414.53
2022-12-25T17:33:15.047Z,101411.91
2022-12-25T17:36:19.517Z,101409.91
2022-12-25T17:39:22.936Z,101404.50
2022-12-25T17:42:25.953Z,101403.38
2022-12-25T17:45:29.206Z,101391.03
2022-12-25T17:48:31.921Z,101378.50
2022-12-25T17:51:35.065Z,101384.75
2022-12-25T17:54:40.914Z,101378.50
2022-12-25T17:57:44.361Z,101371.22
2022-12-25T18:00:47.029Z,101366.41
2022-12-25T18:03:51.049Z,101375.97
2022-12-25T18:06:53.848Z,101385.00
2022-12-25T18:09:57.202Z,101385.09
2022-12-25T18:13:00.013Z,101387.75
2022-12-25T18:16:05.134Z,101396.00
2022-12-25T18:19:09.538Z,101396.94
2022-12-25T18:22:12.566Z,101394.41
2022-12-25T18:25:15.207Z,101390.00
2022-12-25T18:28:18.305Z,101397.25
2022-12-25T18:31:24.746Z,101397.16
2022-12-25T18:34:27.924Z,101388.13
2022-12-25T18:37:35.902Z,101389.25
2022-12-25T18:40:47.859Z,101390.22
2022-12-25T18:43:54.322Z,101399.63
2022-12-25T18:46:58.407Z,101394.47
2022-12-25T18:50:01.515Z,101394.03
2022-12-25T18:53:05.885Z,101384.59
2022-12-25T18:56:11.648Z,101384.78
2022-12-25T18:59:16.968Z,101395.13
2022-12-25T19:02:28.481Z,101383.03
2022-12-25T19:05:32.365Z,101382.28
2022-12-25T19:08:35.343Z,101377.94
2022-12-25T19:11:45.977Z,101373.75
2022-12-25T19:14:49.675Z,101380.41
2022-12-25T19:17:52.638Z,101365.41
2022-12-25T19:20:55.474Z,101363.63
2022-12-25T19:23:59.262Z,101360.56
2022-12-25T19:27:02.787Z,101347.47
2022-12-25T19:30:06.829Z,101342.38
2022-12-25T19:33:17.268Z,101341.38
2022-12-25T19:36:21.238Z,101330.25
2022-12-25T19:39:24.165Z,101335.53
2022-12-25T19:42:27.961Z,101339.94
2022-12-25T19:45:31.135Z,101335.75
2022-12-25T19:48:35.541Z,101347.22
2022-12-25T19:51:41.180Z,101348.19
2022-12-25T19:54:44.437Z,101348.44
2022-12-25T19:57:47.150Z,101336.97
2022-12-25T20:00:58.600Z,101343.13
2022-12-25T20:04:01.268Z,101342.28
2022-12-25T20:07:06.799Z,101345.19
2022-12-25T20:10:10.160Z,101344.53
2022-12-25T20:13:13.919Z,101344.75
2022-12-25T20:16:16.822Z,101343.59
2022-12-25T20:19:20.388Z,101344.56
2022-12-25T20:22:23.025Z,101343.69
2022-12-25T20:25:26.609Z,101339.19
2022-12-25T20:28:29.459Z,101340.94
2022-12-25T20:31:35.277Z,101331.38
2022-12-25T20:34:39.038Z,101336.63
2022-12-25T20:37:43.714Z,101326.19
2022-12-25T20:41:25.237Z,101334.91
2022-12-25T20:44:10.557Z,101323.75
2022-12-25T20:47:13.510Z,101315.84
2022-12-25T20:50:16.809Z,101313.19
2022-12-25T20:53:20.327Z,101290.47
2022-12-25T20:56:26.501Z,101299.47
2022-12-25T20:59:35.146Z,101293.91
2022-12-25T21:02:40.875Z,101284.09
2022-12-25T21:05:56.364Z,101291.38
2022-12-25T21:09:00.542Z,101272.88
2022-12-25T21:12:03.674Z,101288.75
2022-12-25T21:15:13.275Z,101278.38
2022-12-25T21:18:20.644Z,101278.28
2022-12-25T21:21:23.928Z,101269.44
2022-12-25T21:24:26.846Z,101265.38
2022-12-25T21:27:30.637Z,101262.34
2022-12-25T21:30:34.255Z,101264.19
2022-12-25T21:33:53.802Z,101251.56
2022-12-25T21:36:57.287Z,101254.66
2022-12-25T21:40:00.651Z,101261.84
2022-12-25T21:51:23.529Z,101240.75
2022-12-25T21:54:27.567Z,101243.31
2022-12-25T21:57:30.632Z,101232.78
2022-12-25T22:00:34.189Z,101228.59
2022-12-25T22:03:38.504Z,101225.28
2022-12-25T22:07:14.863Z,101210.97
2022-12-25T22:10:18.055Z,101203.19
2022-12-25T22:13:39.316Z,101196.44
2022-12-25T22:17:01.351Z,101204.03
2022-12-25T22:20:07.366Z,101198.91
2022-12-25T22:23:24.806Z,101190.28
2022-12-25T22:26:28.207Z,101182.09
2022-12-25T22:29:31.072Z,101169.91
2022-12-25T22:32:34.265Z,101174.34
2022-12-25T22:35:37.251Z,101166.97
2022-12-25T22:38:42.754Z,101167.50
2022-12-25T22:41:45.427Z,101158.81
2022-12-25T22:44:48.817Z,101137.63
2022-12-25T22:47:51.592Z,101150.13
2022-12-25T22:50:55.016Z,101136.94
2022-12-25T22:54:03.368Z,101137.63
2022-12-25T22:57:07.193Z,101136.63
2022-12-25T23:00:10.530Z,101141.94
2022-12-25T23:03:13.637Z,101140.44
2022-12-25T23:06:16.449Z,101159.88
2022-12-25T23:09:24.836Z,101166.22
2022-12-25T23:12:46.080Z,101135.28
2022-12-25T23:15:49.633Z,101144.31
2022-12-25T23:19:10.753Z,101134.50
2022-12-25T23:22:32.646Z,101134.34
2022-12-25T23:25:54.453Z,101127.41
2022-12-25T23:29:16.111Z,101134.31
2022-12-25T23:32:23.085Z,101126.13
2022-12-25T23:35:26.130Z,101112.97
2022-12-25T23:38:29.282Z,101119.00
2022-12-25T23:41:33.068Z,101107.25
2022-12-25T23:44:35.963Z,101102.22
2022-12-25T23:47:39.214Z,101089.13
2022-12-25T23:50:41.931Z,101083.00
2022-12-25T23:53:45.158Z,101080.22
2022-12-25T23:56:47.794Z,101078.50
2022-12-25T23:59:50.845Z,101086.38
